Flight Track Log - Related Links

Times and Time Zones

All times are in EDT time to prevent confusion due to time zone crossing. See the EGF4174 flight status page for this flight to view local times or setup timezone preferences in your user account.

Time Position Orientation Groundspeed Altitude Reporting Facility
EDT Latitude Longitude Course Direction KTS MPH feet Rate Location/Type
Wed 04:55:30 PM 43.1089 -76.0892 286° West 166 191 1,100  Level Boston Center
Wed 04:57:07 PM 43.1647 -76.0386 33° Northeast 230 265 4,500 1,929 Climbing Boston Center
Wed 04:57:50 PM 43.1756 -76.0933 285° West 257 296 5,600 2,104 Climbing Boston Center
Wed 04:58:00 PM 43.1833 -76.4262 270° West  Level FlightAware Approximate
Wed 04:59:00 PM 43.2047 -76.5324 281° West  Level FlightAware Approximate
Wed 04:59:21 PM 43.1731 -76.2444 269° West 267 307 9,200  Level Cleveland Center
Wed 05:00:00 PM 43.2234 -76.6479 286° West  Level FlightAware Approximate
Wed 05:00:21 PM 43.1769 -76.3522 273° West 267 307 10,500  Level Cleveland Center
Wed 05:01:21 PM 43.1767 -76.4633 270° West 288 331 12,800 2,200 Climbing Cleveland Center
Wed 05:02:21 PM 43.1744 -76.5744 268° West 295 339 14,900 1,850 Climbing Cleveland Center
Wed 05:03:21 PM 43.1761 -76.6856 271° West 295 339 16,500 1,500 Climbing Cleveland Center
Wed 05:04:21 PM 43.1711 -76.7856 266° West 289 333 17,900 1,250 Climbing Cleveland Center
Wed 05:05:21 PM 43.1706 -76.8994 270° West 294 338 19,000 1,200 Climbing Cleveland Center
Wed 05:06:21 PM 43.1683 -77.0219 269° West 309 356 20,300 1,500 Climbing Cleveland Center
Wed 05:07:21 PM 43.1658 -77.1475 268° West 320 368 22,000 1,550 Climbing Cleveland Center
Wed 05:08:21 PM 43.1650 -77.2672 269° West 320 368 23,400 1,450 Climbing Cleveland Center
Wed 05:09:21 PM 43.1644 -77.3925 270° West 326 375 24,900 1,450 Climbing Cleveland Center
Wed 05:10:21 PM 43.1656 -77.5147 271° West 326 375 26,300 1,300 Climbing Cleveland Center
Wed 05:11:21 PM 43.1647 -77.6372 270° West 326 375 27,500 1,100 Climbing Cleveland Center
Wed 05:12:21 PM 43.1656 -77.7594 271° West 326 375 28,500 1,000 Climbing Cleveland Center
Wed 05:13:21 PM 43.1625 -77.8878 268° West 326 375 29,500 750 Climbing Cleveland Center
Wed 05:14:21 PM 43.1611 -78.0131 269° West 326 375 30,000 250 Climbing Cleveland Center
Wed 05:15:21 PM 43.1619 -78.1497 271° West 338 389 30,000  Level Cleveland Center
Wed 05:16:21 PM 43.1606 -78.2864 269° West 352 405 30,000  Level Cleveland Center
Wed 05:17:21 PM 43.1592 -78.4344 269° West 363 418 30,000  Level Cleveland Center
Wed 05:18:21 PM 43.1575 -78.5683 269° West 363 418 30,000  Level Cleveland Center
Wed 05:19:21 PM 43.1556 -78.7022 269° West 363 418 30,000  Level Cleveland Center
Wed 05:20:21 PM 43.1536 -78.8358 269° West 358 412 30,000  Level Cleveland Center
Wed 05:21:21 PM 43.1514 -78.9669 269° West 358 412 30,000  Level Cleveland Center
Wed 05:21:41 PM 43.1333 -79.0000 233° Southwest 350 403 30,000  Level Toronto Center
Wed 05:22:41 PM 43.1333 -79.1333 270° West 350 403 30,000  Level Toronto Center
Wed 05:23:41 PM 43.1333 -79.2667 270° West 350 403 30,000  Level Toronto Center
Wed 05:24:41 PM 43.1333 -79.4000 270° West 350 403 30,000  Level Toronto Center
Wed 05:25:41 PM 43.1333 -79.5500 270° West 350 403 30,000  Level Toronto Center
Wed 05:26:41 PM 43.1333 -79.6500 270° West 350 403 30,000  Level Toronto Center
Wed 05:27:41 PM 43.1167 -79.8000 261° West 350 403 30,000  Level Toronto Center
Wed 05:28:41 PM 43.1167 -79.9333 270° West 360 414 30,000  Level Toronto Center
Wed 05:29:41 PM 43.1167 -80.0667 270° West 370 426 30,000  Level Toronto Center
Wed 05:30:41 PM 43.1167 -80.2333 270° West 370 426 30,000  Level Toronto Center
Wed 05:31:41 PM 43.1167 -80.3667 270° West 380 437 30,000  Level Toronto Center
Wed 05:32:41 PM 43.1000 -80.5167 261° West 380 437 30,000  Level Toronto Center
Wed 05:33:41 PM 43.1000 -80.6667 270° West 380 437 30,000  Level Toronto Center
Wed 05:34:41 PM 43.0833 -80.8167 261° West 390 449 30,000  Level Toronto Center
Wed 05:35:41 PM 43.0833 -80.9500 270° West 390 449 30,000  Level Toronto Center
Wed 05:36:41 PM 43.0833 -81.1167 270° West 390 449 30,000  Level Toronto Center
Wed 05:37:41 PM 43.0667 -81.2500 260° West 390 449 30,000  Level Toronto Center
Wed 05:38:41 PM 43.0667 -81.4167 270° West 390 449 30,000  Level Toronto Center
Wed 05:39:41 PM 43.0667 -81.5500 270° West 390 449 30,000  Level Toronto Center
Wed 05:40:41 PM 43.0667 -81.7167 270° West 390 449 30,000  Level Toronto Center
Wed 05:41:41 PM 43.0500 -81.8500 260° West 390 449 30,000  Level Toronto Center
Wed 05:42:41 PM 43.0333 -81.9833 260° West 390 449 30,000  Level Toronto Center
Wed 05:43:41 PM 43.0333 -82.1500 270° West 390 449 30,000  Level Toronto Center
Wed 05:44:41 PM 43.0333 -82.2833 270° West 390 449 30,000 -350 Level Toronto Center
Wed 05:45:41 PM 43.0333 -82.4333 270° West 390 449 29,300 -600 Descending Toronto Center
Wed 05:46:41 PM 43.0167 -82.5667 260° West 390 449 28,800 -600 Descending Toronto Center
Wed 05:47:21 PM 43.0289 -82.6819 278° West 388 447 28,300 -480 Descending Cleveland Center
Wed 05:48:21 PM 43.0658 -82.8253 289° West 388 447 28,000 -150 Descending Cleveland Center
Wed 05:49:21 PM 43.1067 -82.9692 291° West 399 459 28,000  Level Cleveland Center
Wed 05:50:21 PM 43.0889 -83.1133 260° West 383 441 28,000  Level Cleveland Center
Wed 05:51:21 PM 42.9914 -83.1917 210° Southwest 343 395 28,000  Level Cleveland Center
Wed 05:52:21 PM 42.9303 -83.3111 235° Southwest 362 417 28,000  Level Cleveland Center
Wed 05:53:21 PM 42.9286 -83.4586 269° West 362 417 28,000  Level Cleveland Center
Wed 05:54:21 PM 42.9231 -83.6028 267° West 380 437 28,000  Level Cleveland Center
Wed 05:55:21 PM 42.9167 -83.7556 267° West 391 450 28,000 -500 Level Cleveland Center
Wed 05:56:21 PM 42.9106 -83.9000 267° West 396 456 27,000 -950 Descending Cleveland Center
Wed 05:57:21 PM 42.9061 -84.0500 268° West 396 456 26,100 -652 Descending Cleveland Center
Wed 05:57:53 PM 42.9031 -84.1364 267° West 390 449 26,000 -64 Descending Chicago Center
Wed 05:58:55 PM 42.8972 -84.2831 267° West 389 448 26,000  Level Chicago Center
Wed 05:59:57 PM 42.8908 -84.4289 267° West 388 447 26,000  Level Chicago Center
Wed 06:01:00 PM 42.8858 -84.5753 267° West 387 445 26,000  Level Chicago Center
Wed 06:02:02 PM 42.8714 -84.7200 262° West 386 444 26,000  Level Chicago Center
Wed 06:03:04 PM 42.8522 -84.8944 262° West 389 448 26,000  Level Chicago Center
Wed 06:04:06 PM 42.8367 -85.0397 262° West 390 449 26,000  Level Chicago Center
Wed 06:05:08 PM 42.8208 -85.1850 262° West 389 448 26,000  Level Chicago Center
Wed 06:06:10 PM 42.8058 -85.3306 262° West 388 447 26,000  Level Chicago Center
Wed 06:07:12 PM 42.7897 -85.4764 261° West 389 448 26,000  Level Chicago Center
Wed 06:08:14 PM 42.7658 -85.6178 257° West 384 442 26,000 -871 Level Chicago Center
Wed 06:09:16 PM 42.7347 -85.7883 256° West 385 443 24,200 -1,824 Descending Chicago Center
Wed 06:10:19 PM 42.7100 -85.9258 256° West 375 432 22,200 -1,584 Descending Chicago Center
Wed 06:11:21 PM 42.6850 -86.0617 256° West 370 426 20,900 -1,065 Descending Chicago Center
Wed 06:12:23 PM 42.6603 -86.1958 256° West 367 422 20,000 -435 Descending Chicago Center
Wed 06:13:25 PM 42.6361 -86.3267 256° West 358 412 20,000 -435 Level Chicago Center
Wed 06:14:27 PM 42.6119 -86.4550 256° West 352 405 19,100 -1,355 Descending Chicago Center
Wed 06:15:29 PM 42.5886 -86.5803 256° West 345 397 17,200 -2,129 Descending Chicago Center
Wed 06:16:31 PM 42.5606 -86.7281 256° West 339 390 14,700 -1,935 Descending Chicago Center
Wed 06:17:33 PM 42.5319 -86.8375 251° West 319 367 13,200 -1,452 Descending Chicago Center
Wed 06:18:35 PM 42.5042 -86.9342 249° West 287 330 11,700 -1,452 Descending Chicago Center
Wed 06:19:37 PM 42.4767 -87.0378 250° West 291 335 10,200 -816 Descending Chicago Center
Wed 06:20:40 PM 42.4486 -87.1353 249° West 282 325 10,000 -288 Descending Chicago Center
Wed 06:21:42 PM 42.4203 -87.2381 250° West 287 330 9,600 -726 Descending Chicago Center
Wed 06:22:44 PM 42.3850 -87.3558 248° West 284 327 8,500 -1,016 Descending Chicago Center
Wed 06:23:46 PM 42.3539 -87.4461 245° Southwest 275 316 7,500 -726 Descending Chicago Center
Wed 06:24:48 PM 42.3203 -87.5394 244° Southwest 273 314 7,000 -242 Descending Chicago Center
Wed 06:25:50 PM 42.2614 -87.6056 220° Southwest 276 318 7,000 -484 Level Chicago Center
Wed 06:26:52 PM 42.2025 -87.6686 218° Southwest 273 314 6,000 -1,258 Descending Chicago Center
Wed 06:27:54 PM 42.1397 -87.7400 220° Southwest 249 287 4,400 -1,548 Descending Chicago Center

Login

Don't have an account? Register now (free) for customized features, flight alerts, and more!